sensor_id;sensor_type;location;lat;lon;timestamp;P1;durP1;ratioP1;P2;durP2;ratioP2
57565;SDS011;63999;43.882;-0.310;2023-11-19T00:00:04;3.10;;;1.50;;
57565;SDS011;63999;43.882;-0.310;2023-11-19T00:02:31;4.15;;;1.10;;
57565;SDS011;63999;43.882;-0.310;2023-11-19T00:04:57;1.98;;;1.20;;
57565;SDS011;63999;43.882;-0.310;2023-11-19T00:07:23;1.83;;;1.00;;
57565;SDS011;63999;43.882;-0.310;2023-11-19T00:09:48;1.30;;;0.80;;
57565;SDS011;63999;43.882;-0.310;2023-11-19T00:12:15;1.80;;;1.00;;
57565;SDS011;63999;43.882;-0.310;2023-11-19T00:14:40;2.17;;;1.10;;
57565;SDS011;63999;43.882;-0.310;2023-11-19T00:17:06;1.13;;;0.85;;
57565;SDS011;63999;43.882;-0.310;2023-11-19T00:19:32;2.15;;;0.98;;
57565;SDS011;63999;43.882;-0.310;2023-11-19T00:21:57;7.78;;;0.95;;
57565;SDS011;63999;43.882;-0.310;2023-11-19T00:24:27;1.05;;;0.80;;
57565;SDS011;63999;43.882;-0.310;2023-11-19T00:26:53;6.15;;;1.23;;
57565;SDS011;63999;43.882;-0.310;2023-11-19T00:29:19;2.08;;;1.35;;
57565;SDS011;63999;43.882;-0.310;2023-11-19T00:31:46;3.00;;;1.42;;
57565;SDS011;63999;43.882;-0.310;2023-11-19T00:34:11;2.30;;;1.58;;
57565;SDS011;63999;43.882;-0.310;2023-11-19T00:36:38;3.40;;;1.73;;
57565;SDS011;63999;43.882;-0.310;2023-11-19T00:39:04;4.30;;;1.65;;
57565;SDS011;63999;43.882;-0.310;2023-11-19T00:41:31;2.53;;;1.50;;
57565;SDS011;63999;43.882;-0.310;2023-11-19T00:43:56;3.67;;;1.70;;
57565;SDS011;63999;43.882;-0.310;2023-11-19T00:46:22;2.67;;;1.52;;
57565;SDS011;63999;43.882;-0.310;2023-11-19T00:48:48;1.60;;;1.17;;
57565;SDS011;63999;43.882;-0.310;2023-11-19T00:51:14;2.80;;;1.40;;
57565;SDS011;63999;43.882;-0.310;2023-11-19T00:53:39;2.58;;;1.70;;
57565;SDS011;63999;43.882;-0.310;2023-11-19T00:56:05;1.90;;;1.42;;
57565;SDS011;63999;43.882;-0.310;2023-11-19T00:58:31;1.38;;;1.27;;
57565;SDS011;63999;43.882;-0.310;2023-11-19T01:00:57;2.78;;;1.48;;
57565;SDS011;63999;43.882;-0.310;2023-11-19T01:03:23;2.88;;;1.70;;
57565;SDS011;63999;43.882;-0.310;2023-11-19T01:05:49;1.92;;;1.27;;
57565;SDS011;63999;43.882;-0.310;2023-11-19T01:08:17;2.53;;;1.58;;
57565;SDS011;63999;43.882;-0.310;2023-11-19T01:10:44;2.90;;;1.55;;
57565;SDS011;63999;43.882;-0.310;2023-11-19T01:13:11;2.85;;;1.48;;
57565;SDS011;63999;43.882;-0.310;2023-11-19T01:15:37;1.50;;;0.90;;
57565;SDS011;63999;43.882;-0.310;2023-11-19T01:18:04;3.30;;;1.40;;
57565;SDS011;63999;43.882;-0.310;2023-11-19T01:20:32;1.48;;;1.05;;
57565;SDS011;63999;43.882;-0.310;2023-11-19T01:23:00;2.35;;;1.35;;
57565;SDS011;63999;43.882;-0.310;2023-11-19T01:25:27;1.42;;;1.00;;
57565;SDS011;63999;43.882;-0.310;2023-11-19T01:27:54;2.13;;;1.42;;
57565;SDS011;63999;43.882;-0.310;2023-11-19T01:30:24;2.03;;;1.17;;
57565;SDS011;63999;43.882;-0.310;2023-11-19T01:32:51;3.13;;;1.23;;
57565;SDS011;63999;43.882;-0.310;2023-11-19T01:35:18;2.13;;;1.23;;
57565;SDS011;63999;43.882;-0.310;2023-11-19T01:37:49;3.55;;;1.48;;
57565;SDS011;63999;43.882;-0.310;2023-11-19T01:40:19;2.88;;;1.38;;
57565;SDS011;63999;43.882;-0.310;2023-11-19T01:42:46;2.15;;;1.30;;
57565;SDS011;63999;43.882;-0.310;2023-11-19T01:45:21;4.50;;;1.58;;
57565;SDS011;63999;43.882;-0.310;2023-11-19T01:47:54;5.22;;;1.88;;
57565;SDS011;63999;43.882;-0.310;2023-11-19T01:50:24;3.20;;;1.70;;
57565;SDS011;63999;43.882;-0.310;2023-11-19T01:52:52;3.58;;;1.40;;
57565;SDS011;63999;43.882;-0.310;2023-11-19T01:55:20;3.25;;;1.52;;
57565;SDS011;63999;43.882;-0.310;2023-11-19T01:57:47;3.05;;;1.70;;
57565;SDS011;63999;43.882;-0.310;2023-11-19T02:00:14;4.43;;;1.42;;
57565;SDS011;63999;43.882;-0.310;2023-11-19T02:02:41;3.60;;;1.40;;
57565;SDS011;63999;43.882;-0.310;2023-11-19T02:05:14;2.53;;;1.13;;
57565;SDS011;63999;43.882;-0.310;2023-11-19T02:07:40;7.88;;;1.52;;
57565;SDS011;63999;43.882;-0.310;2023-11-19T02:10:16;3.08;;;1.70;;
57565;SDS011;63999;43.882;-0.310;2023-11-19T02:12:44;6.18;;;1.67;;
57565;SDS011;63999;43.882;-0.310;2023-11-19T02:15:11;3.45;;;1.95;;
57565;SDS011;63999;43.882;-0.310;2023-11-19T02:17:40;2.30;;;1.15;;
57565;SDS011;63999;43.882;-0.310;2023-11-19T02:20:08;4.38;;;2.00;;
57565;SDS011;63999;43.882;-0.310;2023-11-19T02:22:36;3.75;;;1.80;;
57565;SDS011;63999;43.882;-0.310;2023-11-19T02:28:00;8.98;;;1.90;;
57565;SDS011;63999;43.882;-0.310;2023-11-19T02:30:30;5.35;;;1.70;;
57565;SDS011;63999;43.882;-0.310;2023-11-19T02:32:57;4.55;;;1.70;;
57565;SDS011;63999;43.882;-0.310;2023-11-19T02:35:26;4.43;;;1.95;;
57565;SDS011;63999;43.882;-0.310;2023-11-19T02:37:52;7.53;;;2.08;;
57565;SDS011;63999;43.882;-0.310;2023-11-19T02:40:19;3.58;;;1.75;;
57565;SDS011;63999;43.882;-0.310;2023-11-19T02:42:51;4.55;;;1.92;;
57565;SDS011;63999;43.882;-0.310;2023-11-19T02:45:19;5.78;;;2.03;;
57565;SDS011;63999;43.882;-0.310;2023-11-19T02:47:47;8.45;;;2.28;;
57565;SDS011;63999;43.882;-0.310;2023-11-19T02:50:17;5.85;;;2.60;;
57565;SDS011;63999;43.882;-0.310;2023-11-19T02:52:50;3.90;;;1.50;;
57565;SDS011;63999;43.882;-0.310;2023-11-19T02:55:24;5.70;;;1.98;;
57565;SDS011;63999;43.882;-0.310;2023-11-19T02:58:03;2.60;;;1.40;;
57565;SDS011;63999;43.882;-0.310;2023-11-19T03:00:45;5.22;;;2.08;;
57565;SDS011;63999;43.882;-0.310;2023-11-19T03:03:19;5.30;;;1.73;;
57565;SDS011;63999;43.882;-0.310;2023-11-19T03:05:51;3.00;;;1.65;;
57565;SDS011;63999;43.882;-0.310;2023-11-19T03:08:18;3.55;;;1.60;;
57565;SDS011;63999;43.882;-0.310;2023-11-19T03:11:00;2.67;;;1.35;;
57565;SDS011;63999;43.882;-0.310;2023-11-19T03:13:26;2.55;;;1.55;;
57565;SDS011;63999;43.882;-0.310;2023-11-19T03:15:52;2.38;;;1.30;;
57565;SDS011;63999;43.882;-0.310;2023-11-19T03:18:19;3.67;;;1.40;;
57565;SDS011;63999;43.882;-0.310;2023-11-19T03:20:49;3.15;;;1.60;;
57565;SDS011;63999;43.882;-0.310;2023-11-19T03:23:15;3.75;;;1.38;;
57565;SDS011;63999;43.882;-0.310;2023-11-19T03:25:43;2.63;;;1.40;;
57565;SDS011;63999;43.882;-0.310;2023-11-19T03:28:13;3.85;;;1.55;;
57565;SDS011;63999;43.882;-0.310;2023-11-19T03:30:41;3.20;;;1.50;;
57565;SDS011;63999;43.882;-0.310;2023-11-19T03:33:07;3.65;;;1.70;;
57565;SDS011;63999;43.882;-0.310;2023-11-19T03:35:36;3.63;;;1.73;;
57565;SDS011;63999;43.882;-0.310;2023-11-19T03:38:04;1.73;;;1.10;;
57565;SDS011;63999;43.882;-0.310;2023-11-19T03:40:32;2.67;;;1.58;;
57565;SDS011;63999;43.882;-0.310;2023-11-19T03:42:59;2.88;;;1.50;;
57565;SDS011;63999;43.882;-0.310;2023-11-19T03:45:26;2.97;;;1.52;;
57565;SDS011;63999;43.882;-0.310;2023-11-19T03:47:52;3.60;;;1.20;;
57565;SDS011;63999;43.882;-0.310;2023-11-19T03:50:18;2.38;;;1.38;;
57565;SDS011;63999;43.882;-0.310;2023-11-19T03:52:49;2.33;;;1.40;;
57565;SDS011;63999;43.882;-0.310;2023-11-19T03:55:15;2.03;;;0.88;;
57565;SDS011;63999;43.882;-0.310;2023-11-19T03:57:41;2.83;;;1.00;;
57565;SDS011;63999;43.882;-0.310;2023-11-19T04:00:07;2.42;;;1.35;;
57565;SDS011;63999;43.882;-0.310;2023-11-19T04:02:38;3.22;;;1.50;;
57565;SDS011;63999;43.882;-0.310;2023-11-19T04:05:05;2.25;;;1.27;;
57565;SDS011;63999;43.882;-0.310;2023-11-19T04:07:33;3.33;;;1.77;;
57565;SDS011;63999;43.882;-0.310;2023-11-19T04:10:00;3.72;;;1.50;;
57565;SDS011;63999;43.882;-0.310;2023-11-19T04:12:34;4.03;;;1.75;;
57565;SDS011;63999;43.882;-0.310;2023-11-19T04:15:10;2.17;;;1.38;;
57565;SDS011;63999;43.882;-0.310;2023-11-19T04:17:36;2.97;;;1.63;;
57565;SDS011;63999;43.882;-0.310;2023-11-19T04:20:02;1.98;;;1.10;;
57565;SDS011;63999;43.882;-0.310;2023-11-19T04:22:45;4.32;;;1.63;;
57565;SDS011;63999;43.882;-0.310;2023-11-19T04:25:16;6.60;;;2.80;;
57565;SDS011;63999;43.882;-0.310;2023-11-19T04:27:46;6.43;;;2.08;;
57565;SDS011;63999;43.882;-0.310;2023-11-19T04:30:13;4.22;;;2.13;;
57565;SDS011;63999;43.882;-0.310;2023-11-19T04:32:39;3.47;;;1.50;;
57565;SDS011;63999;43.882;-0.310;2023-11-19T04:35:07;3.22;;;1.80;;
57565;SDS011;63999;43.882;-0.310;2023-11-19T04:37:35;3.75;;;1.52;;
57565;SDS011;63999;43.882;-0.310;2023-11-19T04:40:06;4.18;;;1.90;;
57565;SDS011;63999;43.882;-0.310;2023-11-19T04:42:33;4.75;;;1.50;;
57565;SDS011;63999;43.882;-0.310;2023-11-19T04:45:00;2.47;;;1.48;;
57565;SDS011;63999;43.882;-0.310;2023-11-19T04:47:27;2.35;;;1.42;;
57565;SDS011;63999;43.882;-0.310;2023-11-19T04:49:55;2.78;;;1.33;;
57565;SDS011;63999;43.882;-0.310;2023-11-19T04:52:26;3.72;;;1.70;;
57565;SDS011;63999;43.882;-0.310;2023-11-19T04:54:58;2.78;;;1.38;;
57565;SDS011;63999;43.882;-0.310;2023-11-19T04:57:28;2.90;;;1.42;;
57565;SDS011;63999;43.882;-0.310;2023-11-19T04:59:58;1.60;;;0.90;;
57565;SDS011;63999;43.882;-0.310;2023-11-19T05:02:29;3.80;;;1.65;;
57565;SDS011;63999;43.882;-0.310;2023-11-19T05:04:54;2.63;;;1.00;;
57565;SDS011;63999;43.882;-0.310;2023-11-19T05:07:31;2.13;;;1.30;;
57565;SDS011;63999;43.882;-0.310;2023-11-19T05:09:59;4.72;;;1.20;;
57565;SDS011;63999;43.882;-0.310;2023-11-19T05:12:27;3.05;;;1.15;;
57565;SDS011;63999;43.882;-0.310;2023-11-19T05:14:53;1.83;;;1.00;;
57565;SDS011;63999;43.882;-0.310;2023-11-19T05:17:21;1.83;;;1.00;;
57565;SDS011;63999;43.882;-0.310;2023-11-19T05:19:49;1.40;;;0.93;;
57565;SDS011;63999;43.882;-0.310;2023-11-19T05:22:17;2.70;;;1.23;;
57565;SDS011;63999;43.882;-0.310;2023-11-19T05:24:45;2.63;;;1.10;;
57565;SDS011;63999;43.882;-0.310;2023-11-19T05:27:13;3.22;;;1.10;;
57565;SDS011;63999;43.882;-0.310;2023-11-19T05:29:40;1.70;;;0.88;;
57565;SDS011;63999;43.882;-0.310;2023-11-19T05:32:08;2.67;;;0.80;;
57565;SDS011;63999;43.882;-0.310;2023-11-19T05:34:38;3.63;;;1.20;;
57565;SDS011;63999;43.882;-0.310;2023-11-19T05:37:16;1.98;;;1.10;;
57565;SDS011;63999;43.882;-0.310;2023-11-19T05:39:41;2.42;;;1.27;;
57565;SDS011;63999;43.882;-0.310;2023-11-19T05:42:08;3.15;;;1.20;;
57565;SDS011;63999;43.882;-0.310;2023-11-19T05:44:34;24.25;;;9.25;;
57565;SDS011;63999;43.882;-0.310;2023-11-19T05:47:03;12.60;;;4.50;;
57565;SDS011;63999;43.882;-0.310;2023-11-19T05:49:32;3.30;;;1.30;;
57565;SDS011;63999;43.882;-0.310;2023-11-19T05:51:58;1.58;;;0.98;;
57565;SDS011;63999;43.882;-0.310;2023-11-19T05:54:26;2.10;;;1.17;;
57565;SDS011;63999;43.882;-0.310;2023-11-19T05:56:52;2.15;;;0.95;;
57565;SDS011;63999;43.882;-0.310;2023-11-19T05:59:19;2.63;;;1.20;;
57565;SDS011;63999;43.882;-0.310;2023-11-19T06:01:45;1.67;;;1.10;;
57565;SDS011;63999;43.882;-0.310;2023-11-19T06:04:11;2.42;;;1.20;;
57565;SDS011;63999;43.882;-0.310;2023-11-19T06:06:37;1.27;;;0.80;;
57565;SDS011;63999;43.882;-0.310;2023-11-19T06:09:05;2.83;;;1.50;;
57565;SDS011;63999;43.882;-0.310;2023-11-19T06:11:34;2.95;;;1.17;;
57565;SDS011;63999;43.882;-0.310;2023-11-19T06:14:04;5.72;;;1.80;;
57565;SDS011;63999;43.882;-0.310;2023-11-19T06:16:31;4.18;;;2.08;;
57565;SDS011;63999;43.882;-0.310;2023-11-19T06:18:57;3.22;;;1.42;;
57565;SDS011;63999;43.882;-0.310;2023-11-19T06:21:23;3.20;;;1.50;;
57565;SDS011;63999;43.882;-0.310;2023-11-19T06:23:50;3.35;;;2.00;;
57565;SDS011;63999;43.882;-0.310;2023-11-19T06:26:17;3.53;;;1.48;;
57565;SDS011;63999;43.882;-0.310;2023-11-19T06:28:50;2.03;;;1.20;;
57565;SDS011;63999;43.882;-0.310;2023-11-19T06:31:18;2.80;;;1.58;;
57565;SDS011;63999;43.882;-0.310;2023-11-19T06:33:46;2.50;;;1.45;;
57565;SDS011;63999;43.882;-0.310;2023-11-19T06:36:15;2.65;;;1.30;;
57565;SDS011;63999;43.882;-0.310;2023-11-19T06:38:44;1.42;;;1.13;;
57565;SDS011;63999;43.882;-0.310;2023-11-19T06:41:10;1.80;;;1.20;;
57565;SDS011;63999;43.882;-0.310;2023-11-19T06:43:36;2.63;;;1.50;;
57565;SDS011;63999;43.882;-0.310;2023-11-19T06:46:04;3.00;;;1.33;;
57565;SDS011;63999;43.882;-0.310;2023-11-19T06:48:34;3.65;;;1.55;;
57565;SDS011;63999;43.882;-0.310;2023-11-19T06:51:04;5.57;;;1.50;;
57565;SDS011;63999;43.882;-0.310;2023-11-19T06:56:01;2.28;;;1.55;;
57565;SDS011;63999;43.882;-0.310;2023-11-19T06:58:40;2.67;;;1.25;;
57565;SDS011;63999;43.882;-0.310;2023-11-19T07:03:34;2.97;;;1.45;;
57565;SDS011;63999;43.882;-0.310;2023-11-19T07:06:00;1.67;;;1.00;;
57565;SDS011;63999;43.882;-0.310;2023-11-19T07:08:30;4.70;;;1.55;;
57565;SDS011;63999;43.882;-0.310;2023-11-19T07:11:00;3.03;;;1.08;;
57565;SDS011;63999;43.882;-0.310;2023-11-19T07:13:27;1.80;;;1.35;;
57565;SDS011;63999;43.882;-0.310;2023-11-19T07:15:57;2.13;;;1.30;;
57565;SDS011;63999;43.882;-0.310;2023-11-19T07:18:28;2.15;;;1.10;;
57565;SDS011;63999;43.882;-0.310;2023-11-19T07:21:00;3.05;;;1.10;;
57565;SDS011;63999;43.882;-0.310;2023-11-19T07:23:30;2.20;;;1.10;;
57565;SDS011;63999;43.882;-0.310;2023-11-19T07:25:58;2.03;;;1.15;;
57565;SDS011;63999;43.882;-0.310;2023-11-19T07:28:25;3.63;;;1.38;;
57565;SDS011;63999;43.882;-0.310;2023-11-19T07:30:53;4.88;;;1.50;;
57565;SDS011;63999;43.882;-0.310;2023-11-19T07:33:21;3.03;;;1.75;;
57565;SDS011;63999;43.882;-0.310;2023-11-19T07:35:48;4.43;;;2.22;;
57565;SDS011;63999;43.882;-0.310;2023-11-19T07:38:47;6.20;;;2.90;;
57565;SDS011;63999;43.882;-0.310;2023-11-19T07:41:17;8.50;;;3.35;;
57565;SDS011;63999;43.882;-0.310;2023-11-19T07:43:50;10.73;;;4.38;;
57565;SDS011;63999;43.882;-0.310;2023-11-19T07:46:21;10.32;;;3.00;;
57565;SDS011;63999;43.882;-0.310;2023-11-19T07:48:48;8.63;;;2.85;;
57565;SDS011;63999;43.882;-0.310;2023-11-19T07:51:15;3.88;;;1.98;;
57565;SDS011;63999;43.882;-0.310;2023-11-19T07:53:45;7.10;;;2.50;;
57565;SDS011;63999;43.882;-0.310;2023-11-19T07:56:12;2.60;;;1.50;;
57565;SDS011;63999;43.882;-0.310;2023-11-19T07:58:38;4.32;;;1.90;;
57565;SDS011;63999;43.882;-0.310;2023-11-19T08:01:05;3.63;;;2.00;;
57565;SDS011;63999;43.882;-0.310;2023-11-19T08:03:32;3.10;;;1.70;;
57565;SDS011;63999;43.882;-0.310;2023-11-19T08:06:02;2.97;;;1.73;;
57565;SDS011;63999;43.882;-0.310;2023-11-19T08:08:32;4.03;;;1.45;;
57565;SDS011;63999;43.882;-0.310;2023-11-19T08:11:05;2.20;;;1.38;;
57565;SDS011;63999;43.882;-0.310;2023-11-19T08:13:34;2.42;;;1.55;;
57565;SDS011;63999;43.882;-0.310;2023-11-19T08:16:01;2.50;;;1.45;;
57565;SDS011;63999;43.882;-0.310;2023-11-19T08:18:28;3.65;;;1.90;;
57565;SDS011;63999;43.882;-0.310;2023-11-19T08:20:55;1.60;;;1.23;;
57565;SDS011;63999;43.882;-0.310;2023-11-19T08:23:25;2.72;;;1.27;;
57565;SDS011;63999;43.882;-0.310;2023-11-19T08:25:53;1.85;;;1.48;;
57565;SDS011;63999;43.882;-0.310;2023-11-19T08:28:20;4.65;;;1.55;;
57565;SDS011;63999;43.882;-0.310;2023-11-19T08:30:49;3.63;;;1.50;;
57565;SDS011;63999;43.882;-0.310;2023-11-19T08:33:24;3.70;;;1.83;;
57565;SDS011;63999;43.882;-0.310;2023-11-19T08:35:50;2.88;;;1.50;;
57565;SDS011;63999;43.882;-0.310;2023-11-19T08:38:20;3.25;;;1.88;;
57565;SDS011;63999;43.882;-0.310;2023-11-19T08:40:50;3.53;;;1.63;;
57565;SDS011;63999;43.882;-0.310;2023-11-19T08:43:17;1.67;;;1.50;;
57565;SDS011;63999;43.882;-0.310;2023-11-19T08:45:44;3.33;;;1.85;;
57565;SDS011;63999;43.882;-0.310;2023-11-19T08:48:13;2.75;;;1.80;;
57565;SDS011;63999;43.882;-0.310;2023-11-19T08:50:40;2.58;;;1.55;;
57565;SDS011;63999;43.882;-0.310;2023-11-19T08:53:14;4.00;;;2.50;;
57565;SDS011;63999;43.882;-0.310;2023-11-19T08:55:40;4.00;;;2.10;;
57565;SDS011;63999;43.882;-0.310;2023-11-19T08:58:07;4.43;;;2.40;;
57565;SDS011;63999;43.882;-0.310;2023-11-19T09:00:34;3.38;;;2.22;;
57565;SDS011;63999;43.882;-0.310;2023-11-19T09:03:03;3.03;;;1.92;;
57565;SDS011;63999;43.882;-0.310;2023-11-19T09:05:30;3.28;;;1.95;;
57565;SDS011;63999;43.882;-0.310;2023-11-19T09:08:02;4.05;;;1.98;;
57565;SDS011;63999;43.882;-0.310;2023-11-19T09:10:33;5.43;;;2.17;;
57565;SDS011;63999;43.882;-0.310;2023-11-19T09:12:59;2.72;;;1.67;;
57565;SDS011;63999;43.882;-0.310;2023-11-19T09:15:29;3.10;;;1.65;;
57565;SDS011;63999;43.882;-0.310;2023-11-19T09:17:54;4.35;;;2.08;;
57565;SDS011;63999;43.882;-0.310;2023-11-19T09:20:24;3.70;;;1.88;;
57565;SDS011;63999;43.882;-0.310;2023-11-19T09:22:50;3.10;;;1.65;;
57565;SDS011;63999;43.882;-0.310;2023-11-19T09:25:23;3.80;;;2.22;;
57565;SDS011;63999;43.882;-0.310;2023-11-19T09:27:50;3.05;;;1.55;;
57565;SDS011;63999;43.882;-0.310;2023-11-19T09:30:16;2.65;;;1.10;;
57565;SDS011;63999;43.882;-0.310;2023-11-19T09:32:42;3.13;;;1.73;;
57565;SDS011;63999;43.882;-0.310;2023-11-19T09:35:08;6.05;;;2.50;;
57565;SDS011;63999;43.882;-0.310;2023-11-19T09:37:38;2.00;;;1.40;;
57565;SDS011;63999;43.882;-0.310;2023-11-19T09:40:04;2.80;;;1.73;;
57565;SDS011;63999;43.882;-0.310;2023-11-19T09:42:43;2.80;;;1.10;;
57565;SDS011;63999;43.882;-0.310;2023-11-19T09:45:19;3.25;;;1.55;;
57565;SDS011;63999;43.882;-0.310;2023-11-19T09:47:49;2.63;;;1.50;;
57565;SDS011;63999;43.882;-0.310;2023-11-19T09:50:19;2.25;;;1.50;;
57565;SDS011;63999;43.882;-0.310;2023-11-19T09:52:46;1.77;;;1.17;;
57565;SDS011;63999;43.882;-0.310;2023-11-19T09:55:13;2.45;;;1.10;;
57565;SDS011;63999;43.882;-0.310;2023-11-19T09:57:50;2.33;;;1.27;;
57565;SDS011;63999;43.882;-0.310;2023-11-19T10:00:18;2.28;;;1.33;;
57565;SDS011;63999;43.882;-0.310;2023-11-19T10:02:48;2.70;;;1.42;;
57565;SDS011;63999;43.882;-0.310;2023-11-19T10:05:16;2.30;;;1.20;;
57565;SDS011;63999;43.882;-0.310;2023-11-19T10:07:43;3.17;;;1.02;;
57565;SDS011;63999;43.882;-0.310;2023-11-19T10:10:13;3.78;;;1.30;;
57565;SDS011;63999;43.882;-0.310;2023-11-19T10:12:43;1.88;;;1.02;;
57565;SDS011;63999;43.882;-0.310;2023-11-19T10:15:17;4.10;;;1.30;;
57565;SDS011;63999;43.882;-0.310;2023-11-19T10:18:11;2.88;;;1.50;;
57565;SDS011;63999;43.882;-0.310;2023-11-19T10:20:40;3.53;;;1.30;;
57565;SDS011;63999;43.882;-0.310;2023-11-19T10:23:10;5.25;;;1.50;;
57565;SDS011;63999;43.882;-0.310;2023-11-19T10:25:37;3.03;;;1.17;;
57565;SDS011;63999;43.882;-0.310;2023-11-19T10:28:03;1.98;;;1.10;;
57565;SDS011;63999;43.882;-0.310;2023-11-19T10:30:47;2.38;;;1.17;;
57565;SDS011;63999;43.882;-0.310;2023-11-19T10:33:21;2.60;;;1.40;;
57565;SDS011;63999;43.882;-0.310;2023-11-19T10:35:57;2.60;;;1.40;;
57565;SDS011;63999;43.882;-0.310;2023-11-19T10:38:27;2.85;;;0.90;;
57565;SDS011;63999;43.882;-0.310;2023-11-19T10:40:57;2.33;;;1.23;;
57565;SDS011;63999;43.882;-0.310;2023-11-19T10:43:25;3.95;;;1.20;;
57565;SDS011;63999;43.882;-0.310;2023-11-19T10:45:53;1.88;;;0.90;;
57565;SDS011;63999;43.882;-0.310;2023-11-19T10:48:19;1.58;;;1.05;;
57565;SDS011;63999;43.882;-0.310;2023-11-19T10:50:51;3.33;;;1.30;;
57565;SDS011;63999;43.882;-0.310;2023-11-19T10:53:22;3.10;;;1.02;;
57565;SDS011;63999;43.882;-0.310;2023-11-19T10:55:51;1.08;;;0.60;;
57565;SDS011;63999;43.882;-0.310;2023-11-19T10:58:20;1.80;;;1.05;;
57565;SDS011;63999;43.882;-0.310;2023-11-19T11:00:48;2.35;;;1.23;;
57565;SDS011;63999;43.882;-0.310;2023-11-19T11:03:20;2.65;;;1.20;;
57565;SDS011;63999;43.882;-0.310;2023-11-19T11:05:53;1.73;;;0.93;;
57565;SDS011;63999;43.882;-0.310;2023-11-19T11:08:20;1.80;;;0.65;;
57565;SDS011;63999;43.882;-0.310;2023-11-19T11:10:53;1.50;;;1.05;;
57565;SDS011;63999;43.882;-0.310;2023-11-19T11:13:24;1.60;;;0.80;;
57565;SDS011;63999;43.882;-0.310;2023-11-19T11:15:59;1.60;;;0.82;;
57565;SDS011;63999;43.882;-0.310;2023-11-19T11:18:29;0.90;;;0.75;;
57565;SDS011;63999;43.882;-0.310;2023-11-19T11:20:57;1.40;;;0.63;;
57565;SDS011;63999;43.882;-0.310;2023-11-19T11:29:10;1.83;;;0.73;;
57565;SDS011;63999;43.882;-0.310;2023-11-19T11:31:56;1.55;;;0.60;;
57565;SDS011;63999;43.882;-0.310;2023-11-19T11:37:21;1.33;;;0.80;;
57565;SDS011;63999;43.882;-0.310;2023-11-19T11:40:01;5.60;;;0.90;;
57565;SDS011;63999;43.882;-0.310;2023-11-19T11:42:36;0.50;;;0.50;;
57565;SDS011;63999;43.882;-0.310;2023-11-19T11:50:15;4.10;;;0.90;;
57565;SDS011;63999;43.882;-0.310;2023-11-19T11:55:27;1.25;;;0.55;;
57565;SDS011;63999;43.882;-0.310;2023-11-19T11:58:00;1.45;;;0.50;;
57565;SDS011;63999;43.882;-0.310;2023-11-19T12:00:33;2.45;;;0.38;;
57565;SDS011;63999;43.882;-0.310;2023-11-19T12:03:07;0.63;;;0.43;;
57565;SDS011;63999;43.882;-0.310;2023-11-19T12:05:40;1.35;;;0.45;;
57565;SDS011;63999;43.882;-0.310;2023-11-19T12:08:12;0.28;;;0.20;;
57565;SDS011;63999;43.882;-0.310;2023-11-19T12:10:52;2.97;;;0.60;;
57565;SDS011;63999;43.882;-0.310;2023-11-19T12:13:28;0.50;;;0.35;;
57565;SDS011;63999;43.882;-0.310;2023-11-19T12:16:15;0.57;;;0.30;;
57565;SDS011;63999;43.882;-0.310;2023-11-19T12:18:41;0.50;;;0.50;;
57565;SDS011;63999;43.882;-0.310;2023-11-19T12:21:11;1.02;;;0.43;;
57565;SDS011;63999;43.882;-0.310;2023-11-19T12:23:52;0.65;;;0.43;;
57565;SDS011;63999;43.882;-0.310;2023-11-19T12:26:36;0.25;;;0.25;;
57565;SDS011;63999;43.882;-0.310;2023-11-19T12:29:04;0.40;;;0.40;;
57565;SDS011;63999;43.882;-0.310;2023-11-19T12:31:31;0.22;;;0.20;;
57565;SDS011;63999;43.882;-0.310;2023-11-19T12:34:00;1.33;;;0.60;;
57565;SDS011;63999;43.882;-0.310;2023-11-19T12:36:31;0.70;;;0.50;;
57565;SDS011;63999;43.882;-0.310;2023-11-19T12:38:57;1.13;;;0.57;;
57565;SDS011;63999;43.882;-0.310;2023-11-19T12:41:24;1.15;;;0.60;;
57565;SDS011;63999;43.882;-0.310;2023-11-19T12:43:50;8.32;;;2.42;;
57565;SDS011;63999;43.882;-0.310;2023-11-19T12:46:23;1.15;;;0.88;;
57565;SDS011;63999;43.882;-0.310;2023-11-19T12:48:51;1.83;;;0.98;;
57565;SDS011;63999;43.882;-0.310;2023-11-19T12:51:18;1.38;;;0.90;;
57565;SDS011;63999;43.882;-0.310;2023-11-19T12:53:48;1.83;;;0.63;;
57565;SDS011;63999;43.882;-0.310;2023-11-19T12:56:26;0.63;;;0.40;;
57565;SDS011;63999;43.882;-0.310;2023-11-19T12:58:55;1.30;;;0.40;;
57565;SDS011;63999;43.882;-0.310;2023-11-19T13:01:22;0.98;;;0.20;;
57565;SDS011;63999;43.882;-0.310;2023-11-19T13:03:48;0.47;;;0.32;;
57565;SDS011;63999;43.882;-0.310;2023-11-19T13:06:16;1.70;;;0.47;;
57565;SDS011;63999;43.882;-0.310;2023-11-19T13:08:47;1.65;;;0.60;;
57565;SDS011;63999;43.882;-0.310;2023-11-19T13:11:30;0.40;;;0.30;;
57565;SDS011;63999;43.882;-0.310;2023-11-19T13:13:58;0.50;;;0.40;;
57565;SDS011;63999;43.882;-0.310;2023-11-19T13:16:26;0.65;;;0.50;;
57565;SDS011;63999;43.882;-0.310;2023-11-19T13:18:53;1.90;;;0.82;;
57565;SDS011;63999;43.882;-0.310;2023-11-19T13:21:20;0.45;;;0.20;;
57565;SDS011;63999;43.882;-0.310;2023-11-19T13:23:47;0.32;;;0.30;;
57565;SDS011;63999;43.882;-0.310;2023-11-19T13:26:14;1.98;;;0.52;;
57565;SDS011;63999;43.882;-0.310;2023-11-19T13:28:44;1.70;;;0.40;;
57565;SDS011;63999;43.882;-0.310;2023-11-19T13:31:11;1.70;;;0.57;;
57565;SDS011;63999;43.882;-0.310;2023-11-19T13:33:38;3.33;;;0.80;;
57565;SDS011;63999;43.882;-0.310;2023-11-19T13:36:07;1.80;;;0.70;;
57565;SDS011;63999;43.882;-0.310;2023-11-19T13:38:34;1.98;;;0.45;;
57565;SDS011;63999;43.882;-0.310;2023-11-19T13:41:04;1.25;;;0.60;;
57565;SDS011;63999;43.882;-0.310;2023-11-19T13:43:32;1.52;;;0.50;;
57565;SDS011;63999;43.882;-0.310;2023-11-19T13:45:58;4.68;;;1.20;;
57565;SDS011;63999;43.882;-0.310;2023-11-19T13:48:25;1.35;;;0.40;;
57565;SDS011;63999;43.882;-0.310;2023-11-19T13:50:57;0.50;;;0.30;;
57565;SDS011;63999;43.882;-0.310;2023-11-19T13:53:27;0.63;;;0.35;;
57565;SDS011;63999;43.882;-0.310;2023-11-19T13:55:53;2.53;;;0.52;;
57565;SDS011;63999;43.882;-0.310;2023-11-19T13:58:27;1.73;;;0.52;;
57565;SDS011;63999;43.882;-0.310;2023-11-19T14:00:54;2.33;;;0.38;;
57565;SDS011;63999;43.882;-0.310;2023-11-19T14:03:23;0.28;;;0.20;;
57565;SDS011;63999;43.882;-0.310;2023-11-19T14:05:49;0.63;;;0.40;;
57565;SDS011;63999;43.882;-0.310;2023-11-19T14:08:20;1.10;;;0.32;;
57565;SDS011;63999;43.882;-0.310;2023-11-19T14:10:47;0.98;;;0.40;;
57565;SDS011;63999;43.882;-0.310;2023-11-19T14:13:14;1.10;;;0.20;;
57565;SDS011;63999;43.882;-0.310;2023-11-19T14:15:41;3.53;;;0.40;;
57565;SDS011;63999;43.882;-0.310;2023-11-19T14:18:07;4.95;;;0.93;;
57565;SDS011;63999;43.882;-0.310;2023-11-19T14:20:34;0.30;;;0.30;;
57565;SDS011;63999;43.882;-0.310;2023-11-19T14:23:03;1.88;;;0.50;;
57565;SDS011;63999;43.882;-0.310;2023-11-19T14:25:29;0.43;;;0.40;;
57565;SDS011;63999;43.882;-0.310;2023-11-19T14:28:03;0.60;;;0.40;;
57565;SDS011;63999;43.882;-0.310;2023-11-19T14:33:30;1.75;;;0.45;;
57565;SDS011;63999;43.882;-0.310;2023-11-19T14:35:57;0.60;;;0.40;;
57565;SDS011;63999;43.882;-0.310;2023-11-19T14:38:26;0.40;;;0.20;;
57565;SDS011;63999;43.882;-0.310;2023-11-19T14:40:58;0.45;;;0.38;;
57565;SDS011;63999;43.882;-0.310;2023-11-19T14:43:26;1.20;;;0.45;;
57565;SDS011;63999;43.882;-0.310;2023-11-19T14:45:53;1.63;;;0.60;;
57565;SDS011;63999;43.882;-0.310;2023-11-19T14:48:20;1.60;;;0.47;;
57565;SDS011;63999;43.882;-0.310;2023-11-19T14:50:47;1.73;;;0.50;;
57565;SDS011;63999;43.882;-0.310;2023-11-19T14:53:13;0.57;;;0.40;;
57565;SDS011;63999;43.882;-0.310;2023-11-19T14:55:45;1.70;;;0.30;;
57565;SDS011;63999;43.882;-0.310;2023-11-19T14:58:13;1.67;;;0.40;;
57565;SDS011;63999;43.882;-0.310;2023-11-19T15:00:45;3.35;;;0.85;;
57565;SDS011;63999;43.882;-0.310;2023-11-19T15:03:11;4.22;;;0.55;;
57565;SDS011;63999;43.882;-0.310;2023-11-19T15:05:39;0.65;;;0.22;;
57565;SDS011;63999;43.882;-0.310;2023-11-19T15:08:05;1.77;;;0.55;;
57565;SDS011;63999;43.882;-0.310;2023-11-19T15:10:31;1.73;;;0.57;;